VYPL weather

Pinlebu Airport
Pinlebu, Sagaing Division, Burma

Public forecast

Using degrees Celsius for public forecast. Weather courtesy of forecast.io.

Closest aviation weather report (METAR) to Pinlebu Airport

Report is more than 2 hours old.

Closest report is Imphal Airport, 90.1 nm (166.8 km) WNW. Retrieved 2019/10/23 13:30 UTC (6 hours ago):

VEIM 231330Z 26007KT 4000 HZ FEW018 23/18 Q1012 NOSIG

Closest aviation forecast (TAF) to Pinlebu Airport

Forecast is more than 12 hours old.

Closest forecast is Imphal Airport, 90.1 nm (166.8 km) WNW. Retrieved 2017/12/28 12:00 UTC (2 years ago):

TAF VEIM 281100Z 2812/2821 06006KT 4000 BR FEW020 BECMG 2815/2817 00000KT 2000 BR